createdAt,value
2018-03-22T00:00:19.329Z,1016.08
2018-03-22T00:00:45.468Z,1016.11
2018-03-22T00:01:11.607Z,1016.08
2018-03-22T00:01:37.744Z,1016.05
2018-03-22T00:02:03.900Z,1016.07
2018-03-22T00:02:30.037Z,1016.08
2018-03-22T00:02:56.166Z,1016.05
2018-03-22T00:03:22.303Z,1016.01
2018-03-22T00:03:48.438Z,1016
2018-03-22T00:04:14.603Z,1016.01
2018-03-22T00:04:40.740Z,1016.07
2018-03-22T00:05:06.878Z,1016.01
2018-03-22T00:05:33.012Z,1016.03
2018-03-22T00:05:59.149Z,1016
2018-03-22T00:06:25.317Z,1016.06
2018-03-22T00:06:51.472Z,1016.03
2018-03-22T00:07:17.631Z,1016.02
2018-03-22T00:07:43.766Z,1016.03
2018-03-22T00:08:09.898Z,1016.01
2018-03-22T00:08:36.034Z,1016.05
2018-03-22T00:09:02.171Z,1016.02
2018-03-22T00:09:28.309Z,1016.02
2018-03-22T00:09:54.440Z,1015.96
2018-03-22T00:10:20.578Z,1015.94
2018-03-22T00:10:46.775Z,1016.01
2018-03-22T00:11:12.910Z,1016
2018-03-22T00:11:39.048Z,1016.06
2018-03-22T00:12:05.186Z,1015.98
2018-03-22T00:12:31.322Z,1015.96
2018-03-22T00:12:57.453Z,1015.95
2018-03-22T00:13:23.590Z,1015.99
2018-03-22T00:13:49.721Z,1015.93
2018-03-22T00:14:15.857Z,1016
2018-03-22T00:14:42.026Z,1016.02
2018-03-22T00:15:08.162Z,1015.99
2018-03-22T00:15:34.301Z,1015.99
2018-03-22T00:16:00.441Z,1015.95
2018-03-22T00:16:26.582Z,1015.93
2018-03-22T00:16:52.718Z,1015.92
2018-03-22T00:17:18.881Z,1015.95
2018-03-22T00:17:45.017Z,1015.9
2018-03-22T00:18:11.190Z,1015.93
2018-03-22T00:18:37.312Z,1015.93
2018-03-22T00:19:03.449Z,1015.89
2018-03-22T00:19:29.592Z,1015.91
2018-03-22T00:19:55.723Z,1015.93
2018-03-22T00:20:21.856Z,1015.78
2018-03-22T00:20:47.991Z,1015.87
2018-03-22T00:21:14.125Z,1015.8
2018-03-22T00:21:40.268Z,1015.87
2018-03-22T00:22:06.402Z,1015.9
2018-03-22T00:22:32.541Z,1015.79
2018-03-22T00:22:58.679Z,1015.82
2018-03-22T00:23:24.818Z,1015.81
2018-03-22T00:23:50.947Z,1015.81
2018-03-22T00:24:17.084Z,1015.76
2018-03-22T00:24:43.226Z,1015.75
2018-03-22T00:25:09.361Z,1015.78
2018-03-22T00:25:35.498Z,1015.76
2018-03-22T00:26:01.639Z,1015.72
2018-03-22T00:26:27.802Z,1015.78
2018-03-22T00:26:53.968Z,1015.73
2018-03-22T00:27:20.100Z,1015.73
2018-03-22T00:27:46.254Z,1015.71
2018-03-22T00:28:12.391Z,1015.74
2018-03-22T00:28:38.527Z,1015.71
2018-03-22T00:29:04.695Z,1015.72
2018-03-22T00:29:30.801Z,1015.67
2018-03-22T00:29:56.936Z,1015.73
2018-03-22T00:30:23.071Z,1015.71
2018-03-22T00:30:49.202Z,1015.72
2018-03-22T00:31:15.343Z,1015.71
2018-03-22T00:31:41.505Z,1015.67
2018-03-22T00:32:07.619Z,1015.68
2018-03-22T00:32:33.754Z,1015.65
2018-03-22T00:32:59.890Z,1015.69
2018-03-22T00:33:26.026Z,1015.65
2018-03-22T00:33:52.161Z,1015.66
2018-03-22T00:34:18.293Z,1015.59
2018-03-22T00:34:44.426Z,1015.57
2018-03-22T00:35:10.563Z,1015.59
2018-03-22T00:35:36.724Z,1015.61
2018-03-22T00:36:02.859Z,1015.59
2018-03-22T00:36:28.995Z,1015.53
2018-03-22T00:36:55.136Z,1015.52
2018-03-22T00:37:21.269Z,1015.56
2018-03-22T00:37:47.404Z,1015.55
2018-03-22T00:38:13.540Z,1015.52
2018-03-22T00:38:39.676Z,1015.49
2018-03-22T00:39:05.812Z,1015.51
2018-03-22T00:39:31.946Z,1015.49
2018-03-22T00:39:58.082Z,1015.49
2018-03-22T00:40:24.251Z,1015.44
2018-03-22T00:40:50.384Z,1015.47
2018-03-22T00:41:16.521Z,1015.46
2018-03-22T00:41:42.653Z,1015.44
2018-03-22T00:42:08.786Z,1015.41
2018-03-22T00:42:34.929Z,1015.4
2018-03-22T00:43:01.068Z,1015.43
2018-03-22T00:43:27.202Z,1015.42
2018-03-22T00:43:53.335Z,1015.41
2018-03-22T00:44:19.477Z,1015.42
2018-03-22T00:44:45.605Z,1015.41
2018-03-22T00:45:11.743Z,1015.4
2018-03-22T00:45:37.882Z,1015.38
2018-03-22T00:46:04.036Z,1015.32
2018-03-22T00:46:30.198Z,1015.39
2018-03-22T00:46:56.330Z,1015.37
2018-03-22T00:47:22.495Z,1015.38
2018-03-22T00:47:48.630Z,1015.31
2018-03-22T00:48:14.767Z,1015.29
2018-03-22T00:48:40.901Z,1015.33
2018-03-22T00:49:07.038Z,1015.32
2018-03-22T00:49:33.171Z,1015.26
2018-03-22T00:49:59.307Z,1015.32
2018-03-22T00:50:25.440Z,1015.29
2018-03-22T00:50:51.620Z,1015.31
2018-03-22T00:51:17.755Z,1015.28
2018-03-22T00:51:43.888Z,1015.3
2018-03-22T00:52:10.029Z,1015.33
2018-03-22T00:52:36.164Z,1015.29
2018-03-22T00:53:02.298Z,1015.27
2018-03-22T00:53:28.435Z,1015.27
2018-03-22T00:53:54.565Z,1015.25
2018-03-22T00:54:20.729Z,1015.25
2018-03-22T00:54:46.886Z,1015.19
2018-03-22T00:55:13.024Z,1015.18
2018-03-22T00:55:39.181Z,1015.18
2018-03-22T00:56:05.324Z,1015.16
2018-03-22T00:56:31.454Z,1015.17
2018-03-22T00:56:57.592Z,1015.15
2018-03-22T00:57:23.725Z,1015.14
2018-03-22T00:57:49.860Z,1015.09
2018-03-22T00:58:15.991Z,1015.13
2018-03-22T00:58:42.132Z,1015.17
2018-03-22T00:59:08.262Z,1015.15
2018-03-22T00:59:34.417Z,1015.11
2018-03-22T01:00:00.555Z,1015.07
2018-03-22T01:00:26.686Z,1015.1
2018-03-22T01:00:52.826Z,1015.09
2018-03-22T01:01:18.964Z,1015.08
2018-03-22T01:01:45.096Z,1015.1
2018-03-22T01:02:11.235Z,1015.1
2018-03-22T01:02:37.400Z,1015.07
2018-03-22T01:03:03.539Z,1015.01
2018-03-22T01:03:29.672Z,1015.06
2018-03-22T01:03:55.856Z,1015.11
2018-03-22T01:04:21.992Z,1015.07
2018-03-22T01:04:48.129Z,1015.1
2018-03-22T01:05:14.265Z,1015.04
2018-03-22T01:05:40.431Z,1015.02
2018-03-22T01:06:06.568Z,1015.05
2018-03-22T01:06:32.728Z,1014.98
2018-03-22T01:06:58.858Z,1014.99
2018-03-22T01:07:25.019Z,1014.89
2018-03-22T01:07:51.157Z,1014.87
2018-03-22T01:08:17.300Z,1014.96
2018-03-22T01:08:43.430Z,1014.91
2018-03-22T01:09:09.574Z,1014.93
2018-03-22T01:09:35.729Z,1014.92
2018-03-22T01:10:01.870Z,1014.88
2018-03-22T01:10:28.010Z,1014.93
2018-03-22T01:10:54.151Z,1014.81
2018-03-22T01:11:20.278Z,1014.83
2018-03-22T01:11:46.421Z,1014.82
2018-03-22T01:12:12.561Z,1014.82
2018-03-22T01:12:38.692Z,1014.77
2018-03-22T01:13:04.853Z,1014.81
2018-03-22T01:13:30.984Z,1014.79
2018-03-22T01:13:57.122Z,1014.78
2018-03-22T01:14:23.293Z,1014.78
2018-03-22T01:14:49.419Z,1014.81
2018-03-22T01:15:15.552Z,1014.75
2018-03-22T01:15:41.695Z,1014.7
2018-03-22T01:16:07.828Z,1014.72
2018-03-22T01:16:33.991Z,1014.75
2018-03-22T01:17:00.150Z,1014.63
2018-03-22T01:17:26.279Z,1014.71
2018-03-22T01:17:52.457Z,1014.68
2018-03-22T01:18:18.613Z,1014.63
2018-03-22T01:18:44.748Z,1014.61
2018-03-22T01:19:10.908Z,1014.6
2018-03-22T01:19:37.042Z,1014.61
2018-03-22T01:20:03.179Z,1014.6
2018-03-22T01:20:29.309Z,1014.56
2018-03-22T01:20:55.446Z,1014.65
2018-03-22T01:21:21.583Z,1014.52
2018-03-22T01:21:47.720Z,1014.56
2018-03-22T01:22:13.881Z,1014.51
2018-03-22T01:22:40.022Z,1014.52
2018-03-22T01:23:06.152Z,1014.5
2018-03-22T01:23:32.290Z,1014.45
2018-03-22T01:23:58.428Z,1014.5
2018-03-22T01:24:24.569Z,1014.45
2018-03-22T01:24:50.703Z,1014.43
2018-03-22T01:25:16.842Z,1014.44
2018-03-22T01:25:42.972Z,1014.42
2018-03-22T01:26:09.110Z,1014.45
2018-03-22T01:26:35.239Z,1014.4
2018-03-22T01:27:01.379Z,1014.35
2018-03-22T01:27:27.513Z,1014.34
2018-03-22T01:27:53.648Z,1014.33
2018-03-22T01:28:19.816Z,1014.38
2018-03-22T01:28:45.949Z,1014.35
2018-03-22T01:29:12.082Z,1014.34
2018-03-22T01:29:38.219Z,1014.35
2018-03-22T01:30:04.382Z,1014.39
2018-03-22T01:30:32.942Z,1014.28
2018-03-22T01:30:59.082Z,1014.32
2018-03-22T01:31:25.260Z,1014.3
2018-03-22T01:31:51.400Z,1014.32
2018-03-22T01:32:17.530Z,1014.27
2018-03-22T01:32:43.666Z,1014.21
2018-03-22T01:33:09.803Z,1014.25
2018-03-22T01:33:35.968Z,1014.23
2018-03-22T01:34:02.113Z,1014.27
2018-03-22T01:34:28.250Z,1014.19
2018-03-22T01:34:54.390Z,1014.17
2018-03-22T01:35:20.530Z,1014.19
2018-03-22T01:35:46.690Z,1014.14
2018-03-22T01:36:12.825Z,1014.16
2018-03-22T01:36:38.965Z,1014.15
2018-03-22T01:37:05.098Z,1014.13
2018-03-22T01:37:31.258Z,1014.08
2018-03-22T01:37:57.391Z,1014.08
2018-03-22T01:38:23.527Z,1014.06
2018-03-22T01:38:49.668Z,1014.1
2018-03-22T01:39:15.820Z,1014.12
2018-03-22T01:39:41.935Z,1014.09
2018-03-22T01:40:08.094Z,1014.03
2018-03-22T01:40:34.228Z,1014.09
2018-03-22T01:41:00.361Z,1014.05
2018-03-22T01:41:26.495Z,1014.07
2018-03-22T01:41:52.634Z,1014.04
2018-03-22T01:42:18.772Z,1014.08
2018-03-22T01:42:44.904Z,1014.08
2018-03-22T01:43:11.039Z,1014.11
2018-03-22T01:43:37.181Z,1014.07
2018-03-22T01:44:03.339Z,1013.99
2018-03-22T01:44:29.476Z,1013.99
2018-03-22T01:44:55.616Z,1013.88
2018-03-22T01:45:21.760Z,1013.92
2018-03-22T01:45:47.885Z,1013.91
2018-03-22T01:46:14.028Z,1013.89
2018-03-22T01:46:40.166Z,1013.93
2018-03-22T01:47:06.299Z,1013.88
2018-03-22T01:47:32.430Z,1013.92
2018-03-22T01:47:58.569Z,1013.86
2018-03-22T01:48:24.738Z,1013.87
2018-03-22T01:48:50.872Z,1013.84
2018-03-22T01:49:17.011Z,1013.85
2018-03-22T01:49:43.163Z,1013.9
2018-03-22T01:50:09.298Z,1013.88
2018-03-22T01:50:35.458Z,1013.85
2018-03-22T01:51:01.597Z,1013.9
2018-03-22T01:51:27.730Z,1013.86
2018-03-22T01:51:53.869Z,1013.78
2018-03-22T01:52:20.029Z,1013.84
2018-03-22T01:52:46.167Z,1013.82
2018-03-22T01:53:12.302Z,1013.79
2018-03-22T01:53:38.435Z,1013.78
2018-03-22T01:54:04.603Z,1013.8
2018-03-22T01:54:30.710Z,1013.81
2018-03-22T01:54:56.843Z,1013.82
2018-03-22T01:55:22.982Z,1013.8
2018-03-22T01:55:49.119Z,1013.84
2018-03-22T01:56:15.252Z,1013.79
2018-03-22T01:56:41.414Z,1013.81
2018-03-22T01:57:07.552Z,1013.79
2018-03-22T01:57:33.686Z,1013.74
2018-03-22T01:57:59.817Z,1013.74
2018-03-22T01:58:25.956Z,1013.8
2018-03-22T01:58:52.116Z,1013.79
2018-03-22T01:59:18.267Z,1013.75
2018-03-22T01:59:44.400Z,1013.68
2018-03-22T02:00:10.539Z,1013.69
2018-03-22T02:00:36.679Z,1013.67
2018-03-22T02:01:02.845Z,1013.65
2018-03-22T02:01:29.028Z,1013.61
2018-03-22T02:01:55.168Z,1013.66
2018-03-22T02:02:21.304Z,1013.64
2018-03-22T02:02:47.440Z,1013.6
2018-03-22T02:03:13.574Z,1013.62
2018-03-22T02:03:39.710Z,1013.58
2018-03-22T02:04:05.895Z,1013.56
2018-03-22T02:04:32.027Z,1013.59
2018-03-22T02:04:58.156Z,1013.56
2018-03-22T02:05:24.288Z,1013.6
2018-03-22T02:05:50.418Z,1013.62
2018-03-22T02:06:16.553Z,1013.65
2018-03-22T02:06:42.684Z,1013.6
2018-03-22T02:07:08.826Z,1013.66
2018-03-22T02:07:34.981Z,1013.65
2018-03-22T02:08:01.114Z,1013.7
2018-03-22T02:08:27.250Z,1013.67
2018-03-22T02:08:53.391Z,1013.71
2018-03-22T02:09:19.522Z,1013.7
2018-03-22T02:09:45.660Z,1013.67
2018-03-22T02:10:11.814Z,1013.73
2018-03-22T02:10:37.972Z,1013.66
2018-03-22T02:11:04.137Z,1013.66
2018-03-22T02:11:30.268Z,1013.68
2018-03-22T02:11:56.399Z,1013.67
2018-03-22T02:12:22.535Z,1013.7
2018-03-22T02:12:48.700Z,1013.65
2018-03-22T02:13:14.838Z,1013.65
2018-03-22T02:13:40.972Z,1013.64
2018-03-22T02:14:07.106Z,1013.6
2018-03-22T02:14:33.267Z,1013.57
2018-03-22T02:14:59.401Z,1013.54
2018-03-22T02:15:25.540Z,1013.51
2018-03-22T02:15:51.671Z,1013.54
2018-03-22T02:16:17.826Z,1013.49
2018-03-22T02:16:43.964Z,1013.48
2018-03-22T02:17:10.107Z,1013.51
2018-03-22T02:17:36.264Z,1013.46
2018-03-22T02:18:02.393Z,1013.44
2018-03-22T02:18:28.537Z,1013.4
2018-03-22T02:18:54.692Z,1013.4
2018-03-22T02:19:20.825Z,1013.44
2018-03-22T02:19:46.955Z,1013.45
2018-03-22T02:20:13.094Z,1013.39
2018-03-22T02:20:39.227Z,1013.36
2018-03-22T02:21:05.367Z,1013.39
2018-03-22T02:21:31.504Z,1013.39
2018-03-22T02:21:57.642Z,1013.41
2018-03-22T02:22:23.798Z,1013.46
2018-03-22T02:22:49.933Z,1013.39
2018-03-22T02:23:16.113Z,1013.33
2018-03-22T02:23:42.255Z,1013.37
2018-03-22T02:24:08.416Z,1013.39
2018-03-22T02:24:34.558Z,1013.39
2018-03-22T02:25:00.719Z,1013.34
2018-03-22T02:25:26.883Z,1013.34
2018-03-22T02:25:53.042Z,1013.37
2018-03-22T02:26:19.180Z,1013.38
2018-03-22T02:26:45.345Z,1013.32
2018-03-22T02:27:11.482Z,1013.36
2018-03-22T02:27:37.608Z,1013.35
2018-03-22T02:28:03.754Z,1013.35
2018-03-22T02:28:29.890Z,1013.34
2018-03-22T02:28:56.032Z,1013.34
2018-03-22T02:29:22.190Z,1013.34
2018-03-22T02:29:48.326Z,1013.33
2018-03-22T02:30:14.456Z,1013.33
2018-03-22T02:30:40.591Z,1013.33
2018-03-22T02:31:06.724Z,1013.25
2018-03-22T02:31:32.859Z,1013.26
2018-03-22T02:31:58.998Z,1013.25
2018-03-22T02:32:25.159Z,1013.26
2018-03-22T02:32:51.315Z,1013.17
2018-03-22T02:33:17.456Z,1013.18
2018-03-22T02:33:43.592Z,1013.17
2018-03-22T02:34:09.727Z,1013.19
2018-03-22T02:34:35.862Z,1013.15
2018-03-22T02:35:01.995Z,1013.13
2018-03-22T02:35:28.158Z,1013.1
2018-03-22T02:35:54.319Z,1013.16
2018-03-22T02:36:20.457Z,1013.1
2018-03-22T02:36:46.599Z,1013.16
2018-03-22T02:37:12.718Z,1013.08
2018-03-22T02:37:38.850Z,1013.12
2018-03-22T02:38:04.986Z,1013.11
2018-03-22T02:38:31.131Z,1013.12
2018-03-22T02:38:57.264Z,1013.1
2018-03-22T02:39:23.398Z,1013.17
2018-03-22T02:39:49.529Z,1013.13
2018-03-22T02:40:15.681Z,1013.12
2018-03-22T02:40:41.819Z,1013.14
2018-03-22T02:41:07.961Z,1013.13
2018-03-22T02:41:34.093Z,1013.09
2018-03-22T02:42:00.235Z,1013.13
2018-03-22T02:42:26.390Z,1013.05
2018-03-22T02:42:52.634Z,1013.1
2018-03-22T02:43:18.694Z,1013.05
2018-03-22T02:43:44.829Z,1013
2018-03-22T02:44:10.962Z,1013
2018-03-22T02:44:37.097Z,1012.92
2018-03-22T02:45:03.231Z,1012.93
2018-03-22T02:45:29.364Z,1012.86
2018-03-22T02:45:55.498Z,1012.84
2018-03-22T02:46:21.635Z,1012.83
2018-03-22T02:46:47.796Z,1012.84
2018-03-22T02:47:13.954Z,1012.82
2018-03-22T02:47:40.118Z,1012.79
2018-03-22T02:48:06.301Z,1012.82
2018-03-22T02:48:32.470Z,1012.86
2018-03-22T02:48:58.618Z,1012.78
2018-03-22T02:49:24.764Z,1012.78
2018-03-22T02:49:50.890Z,1012.73
2018-03-22T02:50:17.022Z,1012.79
2018-03-22T02:50:43.165Z,1012.75
2018-03-22T02:51:09.354Z,1012.71
2018-03-22T02:51:35.431Z,1012.71
2018-03-22T02:52:01.564Z,1012.73
2018-03-22T02:52:27.719Z,1012.78
2018-03-22T02:52:53.859Z,1012.75
2018-03-22T02:53:19.992Z,1012.77
2018-03-22T02:53:46.130Z,1012.75
2018-03-22T02:54:12.304Z,1012.74
2018-03-22T02:54:38.444Z,1012.74
2018-03-22T02:55:04.576Z,1012.72
2018-03-22T02:55:30.718Z,1012.7
2018-03-22T02:55:56.850Z,1012.74
2018-03-22T02:56:22.979Z,1012.68
2018-03-22T02:56:49.114Z,1012.65
2018-03-22T02:57:15.282Z,1012.64
2018-03-22T02:57:41.420Z,1012.62
2018-03-22T02:58:07.575Z,1012.63
2018-03-22T02:58:33.714Z,1012.58
2018-03-22T02:58:59.870Z,1012.52
2018-03-22T02:59:26.006Z,1012.54
2018-03-22T02:59:52.137Z,1012.52
2018-03-22T03:00:18.277Z,1012.48
2018-03-22T03:00:44.425Z,1012.48
2018-03-22T03:01:10.548Z,1012.48
2018-03-22T03:01:36.685Z,1012.51
2018-03-22T03:02:02.820Z,1012.52
2018-03-22T03:02:28.958Z,1012.54
2018-03-22T03:02:55.094Z,1012.49
2018-03-22T03:03:21.249Z,1012.53
2018-03-22T03:03:47.391Z,1012.47
2018-03-22T03:04:13.529Z,1012.45
2018-03-22T03:04:39.666Z,1012.4
2018-03-22T03:05:05.823Z,1012.41
2018-03-22T03:05:31.963Z,1012.4
2018-03-22T03:05:58.093Z,1012.36
2018-03-22T03:06:24.234Z,1012.45
2018-03-22T03:06:50.374Z,1012.41
2018-03-22T03:07:16.505Z,1012.35
2018-03-22T03:07:42.666Z,1012.36
2018-03-22T03:08:08.820Z,1012.4
2018-03-22T03:08:34.958Z,1012.34
2018-03-22T03:09:01.093Z,1012.35
2018-03-22T03:09:27.253Z,1012.36
2018-03-22T03:09:53.391Z,1012.34
2018-03-22T03:10:19.524Z,1012.29
2018-03-22T03:10:45.660Z,1012.31
2018-03-22T03:11:11.805Z,1012.26
2018-03-22T03:11:37.937Z,1012.28
2018-03-22T03:12:04.070Z,1012.29
2018-03-22T03:12:30.209Z,1012.34
2018-03-22T03:12:56.349Z,1012.28
2018-03-22T03:13:22.483Z,1012.14
2018-03-22T03:13:48.615Z,1012.12
2018-03-22T03:14:14.800Z,1012.18
2018-03-22T03:14:40.894Z,1012.24
2018-03-22T03:15:07.026Z,1012.15
2018-03-22T03:15:33.161Z,1012.14
2018-03-22T03:15:59.304Z,1012.21
2018-03-22T03:16:25.435Z,1012.14
2018-03-22T03:16:51.576Z,1012.05
2018-03-22T03:17:17.710Z,1012.09
2018-03-22T03:17:43.847Z,1012.13
2018-03-22T03:18:09.984Z,1012.11
2018-03-22T03:18:36.133Z,1012.13
2018-03-22T03:19:02.272Z,1012.12
2018-03-22T03:19:28.429Z,1012.11
2018-03-22T03:19:54.564Z,1012.09
2018-03-22T03:20:20.701Z,1012.12
2018-03-22T03:20:46.837Z,1012.05
2018-03-22T03:21:12.975Z,1012.11
2018-03-22T03:21:39.112Z,1012.07
2018-03-22T03:22:05.243Z,1012.04
2018-03-22T03:22:31.372Z,1012.03
2018-03-22T03:22:57.502Z,1012.02
2018-03-22T03:23:23.647Z,1012.04
2018-03-22T03:23:49.776Z,1012.07
2018-03-22T03:24:15.913Z,1012.02
2018-03-22T03:24:42.053Z,1011.99
2018-03-22T03:25:08.187Z,1012
2018-03-22T03:25:34.335Z,1012.06
2018-03-22T03:26:00.473Z,1012.01
2018-03-22T03:26:26.609Z,1011.99
2018-03-22T03:26:52.747Z,1012.03
2018-03-22T03:27:18.912Z,1011.98
2018-03-22T03:27:45.045Z,1011.98
2018-03-22T03:28:11.186Z,1011.98
2018-03-22T03:28:37.314Z,1011.9
2018-03-22T03:29:03.452Z,1011.89
2018-03-22T03:29:29.585Z,1011.95
2018-03-22T03:29:55.721Z,1011.92
2018-03-22T03:30:21.957Z,1011.87
2018-03-22T03:30:48.023Z,1011.85
2018-03-22T03:31:14.161Z,1011.88
2018-03-22T03:31:40.300Z,1011.89
2018-03-22T03:32:06.430Z,1011.86
2018-03-22T03:32:32.588Z,1011.88
2018-03-22T03:32:58.727Z,1011.88
2018-03-22T03:33:24.863Z,1011.85
2018-03-22T03:33:51.001Z,1011.87
2018-03-22T03:34:17.157Z,1011.95
2018-03-22T03:34:43.295Z,1011.87
2018-03-22T03:35:09.435Z,1011.84
2018-03-22T03:35:35.566Z,1011.85
2018-03-22T03:36:01.717Z,1011.77
2018-03-22T03:36:27.858Z,1011.8
2018-03-22T03:36:53.996Z,1011.82
2018-03-22T03:37:20.129Z,1011.82
2018-03-22T03:37:46.269Z,1011.82
2018-03-22T03:38:12.411Z,1011.76
2018-03-22T03:38:38.575Z,1011.84
2018-03-22T03:39:04.709Z,1011.81
2018-03-22T03:39:30.846Z,1011.83
2018-03-22T03:39:57.002Z,1011.84
2018-03-22T03:40:23.137Z,1011.8
2018-03-22T03:40:49.275Z,1011.75
2018-03-22T03:41:15.465Z,1011.75
2018-03-22T03:41:41.540Z,1011.77
2018-03-22T03:42:07.681Z,1011.79
2018-03-22T03:42:33.855Z,1011.71
2018-03-22T03:42:59.991Z,1011.72
2018-03-22T03:43:26.126Z,1011.77
2018-03-22T03:43:52.262Z,1011.68
2018-03-22T03:44:18.397Z,1011.76
2018-03-22T03:44:44.536Z,1011.72
2018-03-22T03:45:10.702Z,1011.75
2018-03-22T03:45:36.834Z,1011.74
2018-03-22T03:46:02.975Z,1011.66
2018-03-22T03:46:29.104Z,1011.64
2018-03-22T03:46:55.243Z,1011.64
2018-03-22T03:47:21.384Z,1011.72
2018-03-22T03:47:47.538Z,1011.63
2018-03-22T03:48:13.719Z,1011.71
2018-03-22T03:48:39.857Z,1011.72
2018-03-22T03:49:05.988Z,1011.77
2018-03-22T03:49:32.124Z,1011.65
2018-03-22T03:49:58.259Z,1011.74
2018-03-22T03:50:24.387Z,1011.69
2018-03-22T03:50:50.521Z,1011.73
2018-03-22T03:51:16.661Z,1011.69
2018-03-22T03:51:42.799Z,1011.71
2018-03-22T03:52:08.928Z,1011.67
2018-03-22T03:52:35.064Z,1011.75
2018-03-22T03:53:01.204Z,1011.67
2018-03-22T03:53:27.361Z,1011.68
2018-03-22T03:53:53.489Z,1011.71
2018-03-22T03:54:19.657Z,1011.69
2018-03-22T03:54:45.762Z,1011.67
2018-03-22T03:55:11.906Z,1011.73
2018-03-22T03:55:38.033Z,1011.69
2018-03-22T03:56:04.171Z,1011.82
2018-03-22T03:56:30.302Z,1011.74
2018-03-22T03:56:56.441Z,1011.68
2018-03-22T03:57:22.585Z,1011.63
2018-03-22T03:57:48.741Z,1011.62
2018-03-22T03:58:14.932Z,1011.63
2018-03-22T03:58:41.087Z,1011.64
2018-03-22T03:59:07.224Z,1011.67
2018-03-22T03:59:33.362Z,1011.57
2018-03-22T03:59:59.498Z,1011.53
2018-03-22T04:00:25.634Z,1011.56
2018-03-22T04:00:51.794Z,1011.59
2018-03-22T04:01:17.930Z,1011.59
2018-03-22T04:01:44.059Z,1011.61
2018-03-22T04:02:10.194Z,1011.64
2018-03-22T04:02:36.370Z,1011.57
2018-03-22T04:03:02.507Z,1011.51
2018-03-22T04:03:28.644Z,1011.54
2018-03-22T04:03:54.772Z,1011.45
2018-03-22T04:04:20.938Z,1011.46
2018-03-22T04:04:47.072Z,1011.47
2018-03-22T04:05:13.215Z,1011.54
2018-03-22T04:05:39.344Z,1011.55
2018-03-22T04:06:05.483Z,1011.5
2018-03-22T04:06:31.625Z,1011.51
2018-03-22T04:06:57.755Z,1011.62
2018-03-22T04:07:23.893Z,1011.54
2018-03-22T04:07:50.053Z,1011.46
2018-03-22T04:08:16.189Z,1011.5
2018-03-22T04:08:42.322Z,1011.42
2018-03-22T04:09:08.455Z,1011.5
2018-03-22T04:09:34.591Z,1011.41
2018-03-22T04:10:00.727Z,1011.36
2018-03-22T04:10:26.868Z,1011.37
2018-03-22T04:10:53.002Z,1011.41
2018-03-22T04:11:19.149Z,1011.35
2018-03-22T04:11:45.302Z,1011.32
2018-03-22T04:12:11.431Z,1011.32
2018-03-22T04:12:37.574Z,1011.36
2018-03-22T04:13:03.711Z,1011.36
2018-03-22T04:13:29.849Z,1011.35
2018-03-22T04:13:55.987Z,1011.35
2018-03-22T04:14:22.120Z,1011.28
2018-03-22T04:14:48.247Z,1011.35
2018-03-22T04:15:14.381Z,1011.31
2018-03-22T04:15:40.517Z,1011.33
2018-03-22T04:16:06.650Z,1011.27
2018-03-22T04:16:32.801Z,1011.24
2018-03-22T04:16:58.937Z,1011.29
2018-03-22T04:17:25.071Z,1011.22
2018-03-22T04:17:51.210Z,1011.22
2018-03-22T04:18:17.342Z,1011.14
2018-03-22T04:18:43.477Z,1011.2
2018-03-22T04:19:09.608Z,1011.12
2018-03-22T04:19:35.749Z,1011.12
2018-03-22T04:20:01.901Z,1011.21
2018-03-22T04:20:28.044Z,1011.1
2018-03-22T04:20:54.179Z,1011.11
2018-03-22T04:21:20.315Z,1011.08
2018-03-22T04:21:46.446Z,1011.11
2018-03-22T04:22:12.587Z,1011.08
2018-03-22T04:22:38.730Z,1011.09
2018-03-22T04:23:04.861Z,1011.08
2018-03-22T04:23:31.003Z,1011.1
2018-03-22T04:23:57.141Z,1011.08
2018-03-22T04:24:23.328Z,1011.09
2018-03-22T04:24:49.468Z,1011.08
2018-03-22T04:25:15.601Z,1011.05
2018-03-22T04:25:41.733Z,1011.08
2018-03-22T04:26:07.860Z,1011.08
2018-03-22T04:26:33.998Z,1011.17
2018-03-22T04:27:00.164Z,1011.08
2018-03-22T04:27:26.300Z,1011.04
2018-03-22T04:27:52.435Z,1011.07
2018-03-22T04:28:18.568Z,1011.12
2018-03-22T04:28:44.701Z,1011.08
2018-03-22T04:29:10.835Z,1011.14
2018-03-22T04:29:36.978Z,1011.07
2018-03-22T04:30:03.113Z,1011.13
2018-03-22T04:30:29.249Z,1011.05
2018-03-22T04:30:55.385Z,1011.08
2018-03-22T04:31:21.526Z,1011.13
2018-03-22T04:31:47.659Z,1011.08
2018-03-22T04:32:13.794Z,1011.09
2018-03-22T04:32:39.934Z,1011.09
2018-03-22T04:33:06.067Z,1011.08
2018-03-22T04:33:32.202Z,1011.09
2018-03-22T04:33:58.340Z,1010.99
2018-03-22T04:34:24.478Z,1011
2018-03-22T04:34:50.634Z,1011.08
2018-03-22T04:35:16.772Z,1011.07
2018-03-22T04:35:42.942Z,1011.12
2018-03-22T04:36:09.044Z,1011.11
2018-03-22T04:36:35.185Z,1011.11
2018-03-22T04:37:01.320Z,1011.09
2018-03-22T04:37:27.523Z,1011.08
2018-03-22T04:37:53.673Z,1011.03
2018-03-22T04:38:19.808Z,1011.04
2018-03-22T04:38:45.941Z,1010.99
2018-03-22T04:39:12.074Z,1010.99
2018-03-22T04:39:38.209Z,1010.97
2018-03-22T04:40:04.335Z,1010.98
2018-03-22T04:40:30.504Z,1011.02
2018-03-22T04:40:56.640Z,1011
2018-03-22T04:41:22.779Z,1010.94
2018-03-22T04:41:48.906Z,1010.93
2018-03-22T04:42:15.046Z,1010.9
2018-03-22T04:42:41.210Z,1010.89
2018-03-22T04:43:07.395Z,1010.93
2018-03-22T04:43:33.471Z,1010.87
2018-03-22T04:43:59.611Z,1010.91
2018-03-22T04:44:25.752Z,1010.93
2018-03-22T04:44:51.885Z,1010.78
2018-03-22T04:45:18.018Z,1010.87
2018-03-22T04:45:44.153Z,1010.84
2018-03-22T04:46:10.306Z,1010.89
2018-03-22T04:46:36.428Z,1010.85
2018-03-22T04:47:02.582Z,1010.87
2018-03-22T04:47:28.697Z,1010.81
2018-03-22T04:47:54.836Z,1010.86
2018-03-22T04:48:20.998Z,1010.85
2018-03-22T04:48:47.132Z,1010.8
2018-03-22T04:49:13.272Z,1010.79
2018-03-22T04:49:39.406Z,1010.81
2018-03-22T04:50:05.538Z,1010.82
2018-03-22T04:50:31.674Z,1010.76
2018-03-22T04:50:57.808Z,1010.83
2018-03-22T04:51:23.947Z,1010.74
2018-03-22T04:51:50.080Z,1010.74
2018-03-22T04:52:16.218Z,1010.72
2018-03-22T04:52:42.353Z,1010.75
2018-03-22T04:53:08.521Z,1010.78
2018-03-22T04:53:34.677Z,1010.77
2018-03-22T04:54:00.818Z,1010.73
2018-03-22T04:54:26.971Z,1010.69
2018-03-22T04:54:53.109Z,1010.7
2018-03-22T04:55:19.249Z,1010.68
2018-03-22T04:55:45.407Z,1010.67
2018-03-22T04:56:11.547Z,1010.71
2018-03-22T04:56:37.684Z,1010.59
2018-03-22T04:57:03.823Z,1010.63
2018-03-22T04:57:29.954Z,1010.67
2018-03-22T04:57:56.099Z,1010.64
2018-03-22T04:58:22.237Z,1010.65
2018-03-22T04:58:48.396Z,1010.63
2018-03-22T04:59:14.580Z,1010.68
2018-03-22T04:59:40.666Z,1010.66
2018-03-22T05:00:06.827Z,1010.59
2018-03-22T05:00:32.965Z,1010.58
2018-03-22T05:00:59.128Z,1010.58
2018-03-22T05:01:25.285Z,1010.58
2018-03-22T05:01:51.416Z,1010.61
2018-03-22T05:02:17.626Z,1010.53
2018-03-22T05:02:43.725Z,1010.53
2018-03-22T05:03:09.853Z,1010.61
2018-03-22T05:03:35.986Z,1010.57
2018-03-22T05:04:02.123Z,1010.64
2018-03-22T05:04:28.285Z,1010.55
2018-03-22T05:04:54.418Z,1010.56
2018-03-22T05:05:20.577Z,1010.55
2018-03-22T05:05:46.716Z,1010.5
2018-03-22T05:06:12.875Z,1010.52
2018-03-22T05:06:39.008Z,1010.51
2018-03-22T05:07:05.153Z,1010.52
2018-03-22T05:07:31.282Z,1010.46
2018-03-22T05:07:57.421Z,1010.46
2018-03-22T05:08:23.553Z,1010.51
2018-03-22T05:08:49.686Z,1010.53
2018-03-22T05:09:15.824Z,1010.49
2018-03-22T05:09:41.958Z,1010.56
2018-03-22T05:10:08.095Z,1010.46
2018-03-22T05:10:34.251Z,1010.43
2018-03-22T05:11:00.381Z,1010.47
2018-03-22T05:11:26.518Z,1010.47
2018-03-22T05:11:52.658Z,1010.45
2018-03-22T05:12:18.792Z,1010.42
2018-03-22T05:12:44.949Z,1010.43
2018-03-22T05:13:11.080Z,1010.39
2018-03-22T05:13:37.220Z,1010.44
2018-03-22T05:14:03.349Z,1010.53
2018-03-22T05:14:29.487Z,1010.42
2018-03-22T05:14:55.631Z,1010.48
2018-03-22T05:15:21.766Z,1010.47
2018-03-22T05:15:47.906Z,1010.37
2018-03-22T05:16:14.037Z,1010.4
2018-03-22T05:16:40.193Z,1010.4
2018-03-22T05:17:06.335Z,1010.42
2018-03-22T05:17:32.479Z,1010.45